Tiempo atmosférico en la estación meteorológica de Utiel, València/Valencia (761 m.)



Fecha
DESCASC
Temp. máxima en grados centígrados (hora)
DESCASC
Temp. mínima en grados centígrados (hora)
DESCASC
Temp. media en grados centígrados
DESCASC
Racha de viento máxima en m/sg (hora)
DESCASC
Velocidad máxima media en intervalos de 10 minutos(hora)
DESCASC
Precipitaciones diarias en mm
DESCASC
Precipitaciones de 00:00 a 06:00 en mm
DESCASC
Precipitaciones de 06:00 a 12:00 en mm
DESCASC
Precipitaciones de 12:00 a 18:00 en mm
DESCASC
Precipitaciones de 18:00 a 24:00 en mm
DESCASC
13-01-2021 11 (16:50) -9.2 (03:20) 0.9 3.89 (12:00) 3.06 (08:30) 0 0 0 0 0
12-01-2021 5.4 (15:20) -11.5 (08:10) -3 4.17 (01:30) 3.61 (01:30) 0 0 0 0 0
11-01-2021 4.1 (14:40) -4.5 (05:30) -0.2 8.89 (17:40) 6.67 (17:40) 0 0 0 0 0
10-01-2021 5.6 (14:50) -5.9 (07:10) -0.2 6.39 (02:10) 5 (02:10) 0.8 0 0.6 0.2 0
09-01-2021 2.4 (11:40) -4.6 (-00:0) -1.1 11.39 (05:00) 6.39 (05:00) 10.4 2 1.4 5.6 1.4
08-01-2021 2 (14:20) -0.1 (00:00) 0.9 13.06 (21:00) 7.5 (20:50) 7 2.4 2.8 1.6 0.2
07-01-2021 2.1 (12:50) -0.1 (00:00) 1 6.39 (17:50) 4.17 (17:40) 6.6 1.6 0.4 2.8 1.8
06-01-2021 7.9 (15:50) -6.2 (-00:0) 0.9 4.72 (14:40) 2.78 (07:00) 0 0 0 0 0
05-01-2021 5.4 (15:30) -5.4 (-00:0) 0 6.39 (00:40) 4.72 (00:40) 0 0 0 0 0
04-01-2021 6.4 (14:20) -1.9 (-00:0) 2.3 11.39 (13:50) 7.78 (14:30) 0 0 0 0 0
03-01-2021 6.6 (15:20) -2.8 (-00:0) 1.9 16.39 (01:20) 10.83 (03:10) 0 0 0 0 0
02-01-2021 3.6 (14:50) -1.7 (-00:0) 0.9 17.78 (10:40) 12.22 (10:50) 0 0 0 0 0
01-01-2021 7.1 (14:00) 0.2 (00:00) 3.6 15.28 (16:10) 10 (15:20) 1.6 1.2 0.4 0 0
31-12-2020 8.1 (14:30) -3.6 (-00:0) 2.3 11.94 (23:10) 8.89 (14:40) 0.2 0 0 0 0.2
30-12-2020 7.9 (15:30) -0.7 (-00:0) 3.6 11.39 (01:10) 7.78 (01:10) 0 0 0 0 0
29-12-2020 6.6 (16:00) 0.9 (00:00) 3.7 16.67 (17:50) 11.11 (12:20) 0 0 0 0 0
28-12-2020 8.6 (14:50) 2.7 (00:00) 5.7 26.11 (04:30) 18.61 (05:50) 4.8 0 4.8 0 0
27-12-2020 10.6 (15:00) -6 (-00:0) 2.3 16.67 (19:40) 11.67 (19:40) 0 0 0 0 0
26-12-2020 9.4 (14:20) -0.4 (00:00) 4.5 23.89 (01:40) 17.5 (01:40) 0 0 0 0 0
25-12-2020 8.3 (14:50) 1 (00:00) 4.7 20.28 (23:59) 16.39 (23:59) 0 0 0 0 0
24-12-2020 14.1 (14:20) 3.4 (00:00) 8.8 7.22 (23:40) 5.28 (22:50) 0 0 0 0 0
23-12-2020 17 (15:00) 2.9 (04:10) 10 9.44 (22:20) 6.39 (22:10) 0 0 0 0 0
21-12-2020 14.5 (15:10) -0.7 (-00:0) 6.9 7.22 (13:30) 5.28 (13:30) 0 0 0 0 0
20-12-2020 13.9 (15:00) 2.9 (00:00) 8.4 8.33 (12:00) 6.11 (12:00) 0 0 0 0 0
19-12-2020 11.5 (12:30) 0.2 (00:00) 5.9 7.22 (21:00) 4.44 (15:00) 0 0 0 0 0
18-12-2020 14.8 (16:00) 0.3 (00:00) 7.6 4.72 (14:00) 3.06 (04:00) 0 0 0 0 0

Gráficas

Temp. máximas Temp. mínimas Temp. medias Precipitaciones Rachas de viento máximas Velocidades máximas media en intervalos de 10 minutos

Datos horarios

Fecha y hora oficial Temperatura (ºC) Velocidad del viento (km/h) Dirección del viento Racha (km/h) Dirección de racha Precipitación (mm) Presión (hPa) Tendencia (hPa) Humedad (%)
2021-01-16 23:00:00 0.3 5 Sudeste 11 Este 0 939.7 0.7 78
2021-01-16 22:00:00 1 6 Este 15 Noroeste 0 939.4 0.5 73
2021-01-16 21:00:00 1.4 6 Sur 13 Sudeste 0 939.3 1 72
2021-01-16 20:00:00 3.1 7 Oeste 10 Oeste 0 939 1.2 57
2021-01-16 19:00:00 5 6 Nordeste 15 Sur 0 938.9 1.5 51
2021-01-16 18:00:00 7.3 11 Oeste 23 Noroeste 0 938.3 1.2 52
2021-01-16 17:00:00 10.4 16 Oeste 28 Noroeste 0 937.8 0.4 36
2021-01-16 16:00:00 11.3 20 Noroeste 29 Noroeste 0 937.4 -0.6 28
2021-01-16 15:00:00 13.3 5 Sudoeste 17 Nordeste 0 937.1 -1.4 29
2021-01-16 14:00:00 11.8 2 Noroeste 10 Este 0 937.4 -- 34
2021-01-16 13:00:00 10.1 3 Sur 15 Sudeste 0 938 -- 39
2021-01-16 12:00:00 8.6 6 Sudeste 12 Sudeste 0 938.5 -- 48
2021-01-16 11:00:00 7.5 5 Norte 9 Norte 0 938.2 -- 42
2021-01-16 10:00:00 5.3 6 Norte 17 Noroeste 0 937.3 -- 49
2021-01-16 09:00:00 2.4 16 Noroeste 33 Noroeste 0 936.5 -- 61
2021-01-16 08:00:00 2.3 21 Norte 38 Norte 0 935.6 -- 61
2021-01-16 07:00:00 2.7 28 Norte 52 Norte 0 935.1 -- 58
2021-01-16 06:00:00 3.1 42 Norte 61 Norte 0 934.6 -- 58
2021-01-16 05:00:00 2.6 11 Este 41 Noroeste 0 935.1 -- 62
2021-01-16 04:00:00 3 11 Noroeste 47 Norte 0 935 -- 60
2021-01-16 03:00:00 2.8 39 Noroeste 69 Norte 0 933.5 -- 63
2021-01-16 02:00:00 3.1 48 Norte 64 Norte 0 933.2 -- 63
2021-01-16 01:00:00 2.9 43 Norte 56 Noroeste 0 933.6 -- 65
2021-01-16 00:00:00 3.1 28 Norte 39 Norte 0 935.2 -- 64
2021-01-15 23:00:00 2.4 14 Noroeste 26 Norte 0 935.7 -- 67
2021-01-15 22:00:00 4.7 12 Noroeste 24 Noroeste 0 935.7 -- 52
2021-01-15 21:00:00 3.6 11 Noroeste 26 Noroeste 0 935.9 -- 58
2021-01-15 20:00:00 2.8 18 Noroeste 21 Noroeste 0 936.1 -- 68
2021-01-15 19:00:00 4.3 9 Noroeste 21 Norte 0 935.8 -- 61
2021-01-15 18:00:00 8.1 5 Oeste 13 Oeste 0 935.2 -- 48
2021-01-15 17:00:00 9.6 11 Oeste 17 Oeste 0 935.2 -- 47
2021-01-15 16:00:00 9.3 12 Oeste 37 Noroeste 0 935.3 -- 49
2021-01-15 15:00:00 8.2 26 Norte 45 Noroeste 0 935.1 -- 50
2021-01-15 14:00:00 9.5 30 Norte 44 Norte 0 935.8 -- 49
2021-01-15 13:00:00 8.8 31 Norte 50 Norte 0 936.3 -- 50
2021-01-15 12:00:00 6.9 41 Norte 67 Noroeste 0 936.5 -- 55
2021-01-15 11:00:00 5.5 50 Noroeste 65 Noroeste 0 936.2 -- 60
2021-01-15 10:00:00 5 31 Norte 49 Norte 0 936 -- 64
2021-01-15 09:00:00 3.8 29 Norte 45 Norte 0 935.6 -- 69
2021-01-15 08:00:00 3.8 21 Norte 40 Norte 0 935.5 -- 69
2021-01-15 07:00:00 4.1 26 Norte 40 Norte 0 935 -- 68
2021-01-15 06:00:00 4.2 22 Noroeste 39 Norte 0 935.1 -- 71
2021-01-15 05:00:00 4.5 19 Norte 42 Noroeste 0 935.2 -- 69
2021-01-15 04:00:00 5.1 10 Noroeste 46 Norte 0 935.5 -- 70
2021-01-15 03:00:00 5.3 28 Norte 46 Norte 0 935.1 -- 66
2021-01-15 02:00:00 5.2 36 Noroeste 53 Norte 0 935.1 -- 69
2021-01-15 01:00:00 5.5 19 Norte 61 Noroeste 0 935.9 -- 69
2021-01-15 00:00:00 5.4 40 Norte 61 Norte 0 935.2 -- 69
2021-01-14 23:00:00 5.5 37 Norte 53 Norte 0 935.1 -- 69
2021-01-14 22:00:00 4.8 30 Norte 45 Norte 0 935.3 -- 60
2021-01-14 21:00:00 5.7 36 Noroeste 48 Noroeste 0 935.2 -- 46
2021-01-14 20:00:00 6.1 19 Noroeste 26 Noroeste 0 935.1 -- 36
2021-01-14 19:00:00 5.1 17 Noroeste 25 Noroeste 0 934.7 -- 46
2021-01-14 18:00:00 7.1 9 Noroeste 20 Noroeste 0 934.7 -- 34
2021-01-14 17:00:00 10.3 16 Norte 26 Norte 0 934.5 -- 28
2021-01-14 16:00:00 11.9 9 Noroeste 28 Nordeste 0 934.1 -- 27
2021-01-14 15:00:00 9 6 Este 16 Sudeste 0 934.2 -- 50
2021-01-14 14:00:00 6.5 13 Sudeste 18 Sudeste 0 934.5 -- 60
2021-01-14 13:00:00 5 8 Sudeste 13 Sudeste 0 935.4 -- 68
2021-01-14 12:00:00 3 4 Sudeste 8 Sudeste 0 936.3 -- 69
2021-01-14 11:00:00 -0.2 3 Oeste 5 Sudoeste 0 936.7 -- 76
2021-01-14 10:00:00 -2.7 2 Sudeste 8 Oeste 0 936.5 -- 87
2021-01-14 09:00:00 -7.3 3 Oeste 6 Noroeste 0 936.3 -- 93
2021-01-14 08:00:00 -7.5 3 Norte 4 Norte 0 936.2 -- 92
2021-01-14 07:00:00 -6.6 3 Sur 5 Sur 0 936.1 -- 93
2021-01-14 06:00:00 -6.4 3 Noroeste 6 Noroeste 0 936 -- 94
2021-01-14 05:00:00 -6.8 5 Noroeste 8 Noroeste 0 936.4 -- 92
2021-01-14 04:00:00 -6.7 3 Oeste 6 Noroeste 0 937.1 -- 92
2021-01-14 03:00:00 -6.2 5 Oeste 6 Oeste 0 937.2 -- 92
2021-01-14 02:00:00 -6.1 4 Oeste 7 Oeste 0 937.5 -- 92
2021-01-14 01:00:00 -5.3 4 Norte 6 Noroeste 0 938 -- 91
2021-01-14 00:00:00 -4.4 4 Oeste 8 Noroeste 0 938.2 -- 89
2021-01-13 23:00:00 -3.8 4 Noroeste 9 Noroeste 0 938.6 -- 89
2021-01-13 22:00:00 -3 7 Noroeste 9 Norte 0 938.6 -- 86
2021-01-13 21:00:00 -1.6 0 Calma 7 Sudeste 0 938.3 -- 82
2021-01-13 20:00:00 1.2 6 Sudeste 9 Sudeste 0 938.3 -- 72
2021-01-13 19:00:00 3.1 4 Sur 7 Sur 0 937.9 -- 67
2021-01-13 18:00:00 7.7 3 Sudeste 7 Sur 0 937.5 -- 50
2021-01-13 17:00:00 10.8 2 Sudoeste 6 Sur 0 937.5 -- 40
2021-01-13 16:00:00 9.8 4 Sur 8 Sur 0 937.5 -- 42
2021-01-13 15:00:00 8.7 2 Sur 7 Sudeste 0 937.5 -- 46
2021-01-13 14:00:00 5.9 5 Sudeste 9 Sudeste 0 938 -- 56
2021-01-13 13:00:00 3.8 2 Sudeste 10 Este 0 938.6 -- 61
2021-01-13 12:00:00 0.6 8 Sudeste 14 Sudeste 0 939.5 -- 70
2021-01-13 11:00:00 -1.3 8 Sudeste -- -- 0 939.4 -- 74
2021-01-13 10:00:00 -3.5 5 Sudeste 9 Sudeste 0 939 -- 82
2021-01-13 09:00:00 -6.6 6 Sudeste 13 Sudeste 0 938.4 -- 91
2021-01-13 08:00:00 -7.4 7 Sudeste 10 Sudeste 0 938 -- 91
2021-01-13 07:00:00 -8 6 Sudeste 10 Este 0 937.8 -- 93
2021-01-13 06:00:00 -9 7 Oeste 10 Oeste 0 937.9 -- 91
2021-01-13 05:00:00 -8.3 3 Sur 6 Oeste 0 938 -- 94
2021-01-13 04:00:00 -9.2 7 Oeste 10 Noroeste 0 938.5 -- 92
2021-01-13 03:00:00 -8.1 3 Norte 4 Oeste 0 938.5 -- 93
2021-01-13 02:00:00 -8.1 3 Noroeste 7 Oeste 0 938.5 -- 92
2021-01-13 01:00:00 -8.1 3 Noroeste 6 Sur 0 939 -- 89
2021-01-13 00:00:00 -7.7 3 Oeste 8 Sudoeste 0 939.1 -- 87
2021-01-12 23:00:00 -5.5 5 Sudeste 7 Sudeste 0 939.2 -- 89
2021-01-12 22:00:00 -6 4 Oeste 9 Noroeste 0 938.8 -- 87
2021-01-12 21:00:00 -4.3 3 Oeste 7 Este 0 938.6 -- 86
2021-01-12 20:00:00 -3.5 5 Norte 9 Norte 0 938.4 -- 80
2021-01-12 19:00:00 -1.1 5 Sur 10 Sudeste 0 938.1 -- 73
2021-01-12 18:00:00 1.3 6 Sudeste 12 Sudeste 0 937.7 -- 64
2021-01-12 17:00:00 3.6 8 Sudeste 14 Sudeste 0 937.3 -- 56
2021-01-12 16:00:00 4.5 8 Sur 14 Sudoeste 0 937.2 -- 49
2021-01-12 15:00:00 4.8 4 Oeste 10 Sudoeste 0 937.2 -- 44
2021-01-12 14:00:00 3.8 3 Oeste 9 Sudoeste 0 937.7 -- 44
2021-01-12 13:00:00 1.2 8 Sudoeste 13 Sur 0 938.3 -- 50
2021-01-12 12:00:00 0 2 Sudoeste 6 Sudoeste 0 938.9 -- 50
2021-01-12 11:00:00 -2 3 Nordeste 6 Sudeste 0 939 -- 64
2021-01-12 10:00:00 -6.4 0 Calma 6 Norte 0 938.3 -- 73
2021-01-12 09:00:00 -10.7 4 Norte 9 Sudoeste 0 937.5 -- 81
2021-01-12 08:00:00 -11.2 7 Norte 8 Norte 0 937 -- 80
2021-01-12 07:00:00 -9.1 4 Norte 9 Noroeste 0 936.6 -- 75
2021-01-12 06:00:00 -9.8 5 Noroeste 6 Norte 0 935.8 -- 79
2021-01-12 05:00:00 -9.6 6 Oeste 9 Oeste 0 935.9 -- 77
2021-01-12 04:00:00 -8.6 3 Oeste 8 Sudoeste 0 936.2 -- 76
2021-01-12 03:00:00 -6.9 3 Oeste 8 Norte 0 935.8 -- 77
2021-01-12 02:00:00 -6.2 8 Oeste 15 Noroeste 0 935.5 -- 72
2021-01-12 01:00:00 -4.5 8 Noroeste 12 Noroeste 0 935.3 -- 69
2021-01-12 00:00:00 -3.7 4 Nordeste 16 Noroeste 0 935.3 -- 76
2021-01-11 23:00:00 -3.5 12 Noroeste 15 Noroeste 0 934.5 -- 67
2021-01-11 22:00:00 -3.6 9 Noroeste 17 Noroeste 0 934.1 -- 69
2021-01-11 21:00:00 -3.1 13 Noroeste 23 Norte 0 933.5 -- 68
2021-01-11 20:00:00 -2 16 Noroeste 22 Noroeste 0 933 -- 66
2021-01-11 19:00:00 -1.5 18 Norte 27 Norte 0 932.6 -- 66
2021-01-11 18:00:00 0.1 22 Norte 32 Norte 0 932.2 -- 61
2021-01-11 17:00:00 2.9 21 Norte 31 Norte 0 931.8 -- 52
2021-01-11 16:00:00 3.3 19 Norte 29 Norte 0 931 -- 53
2021-01-11 15:00:00 3.9 19 Norte 27 Norte 0 930.6 -- 52
2021-01-11 14:00:00 3 22 Norte 29 Norte 0 930.5 -- 55
2021-01-11 13:00:00 2.8 20 Norte 26 Noroeste 0 930.7 -- 56
2021-01-11 12:00:00 2.4 18 Norte 32 Norte 0 931.1 -- 57
2021-01-11 11:00:00 0.5 14 Noroeste 22 Noroeste 0 930.8 -- 67
2021-01-11 10:00:00 -1.8 10 Noroeste 14 Noroeste 0 930 -- 74
2021-01-11 09:00:00 -3.8 11 Noroeste 24 Noroeste 0 929.1 -- 84
2021-01-11 08:00:00 -4.5 12 Noroeste 17 Noroeste 0 928.5 -- 86
2021-01-11 07:00:00 -3.6 14 Noroeste 22 Norte 0 928.2 -- 84
2021-01-11 06:00:00 -4.2 16 Noroeste 23 Noroeste 0 928.1 -- 87
2021-01-11 05:00:00 -4.1 11 Noroeste 17 Noroeste 0 927.9 -- 85
2021-01-11 04:00:00 -3.1 13 Noroeste 17 Noroeste 0 928 -- 84
2021-01-11 03:00:00 -2.8 10 Noroeste 18 Noroeste 0 927.9 -- 83
2021-01-11 02:00:00 -2.6 12 Noroeste 19 Noroeste 0 927.7 -- 84
2021-01-11 01:00:00 -1.8 15 Noroeste 22 Noroeste 0 927.5 -- 82
2021-01-11 00:00:00 -1.9 14 Noroeste 19 Noroeste 0 927.4 -- 85
2021-01-10 23:00:00 -1.2 12 Noroeste 18 Noroeste 0 927.2 -- 85
2021-01-10 22:00:00 0.4 13 Noroeste 22 Noroeste 0 926.8 -- 81
2021-01-10 21:00:00 0.9 11 Noroeste 16 Noroeste 0 926.4 -- 83
2021-01-10 20:00:00 1 11 Noroeste 17 Noroeste 0 926 -- 82
2021-01-10 19:00:00 1.1 6 Noroeste 11 Norte 0 925.5 -- 86
2021-01-10 18:00:00 1.9 10 Noroeste 18 Norte 0 924.7 -- 81
2021-01-10 17:00:00 3.2 4 Norte 10 Norte 0 924.1 -- 76
2021-01-10 16:00:00 3.7 8 Norte 10 Norte 0 923.4 -- 76
2021-01-10 15:00:00 4.5 8 Noroeste 11 Norte 0 923 -- 72
2021-01-10 14:00:00 4.3 0 Calma 10 Noroeste 0 923 -- 72
2021-01-10 13:00:00 3.2 4 Oeste 12 Noroeste 0.2 923.1 -- 76
2021-01-10 12:00:00 3.2 5 Oeste 10 Oeste 0.4 923.2 -- 75
2021-01-10 11:00:00 2.2 7 Norte 13 Noroeste 0.2 922.7 -- 78
2021-01-10 10:00:00 -1.2 11 Noroeste 18 Noroeste 0 921.6 -- 85
2021-01-10 09:00:00 -3.1 13 Noroeste 20 Noroeste 0 920.8 -- 90
2021-01-10 08:00:00 -5.2 12 Noroeste 20 Norte 0 920.4 -- 89
2021-01-10 07:00:00 -5.8 6 Norte 12 Noroeste 0 919.9 -- 91
2021-01-10 06:00:00 -5.5 6 Norte 17 Noroeste 0 919.8 -- 91
2021-01-10 05:00:00 -4.8 11 Noroeste 17 Noroeste 0 919.4 -- 90
2021-01-10 04:00:00 -4.4 8 Noroeste 19 Noroeste 0 919.3 -- 90
2021-01-10 03:00:00 -4 14 Noroeste 23 Noroeste 0 919.2 -- 90
2021-01-10 02:00:00 -3.6 12 Noroeste 22 Noroeste 0 919 -- 92
2021-01-10 01:00:00 -4 14 Noroeste 18 Noroeste 0 919.2 -- 93
2021-01-10 00:00:00 -3.5 14 Noroeste 17 Noroeste 0 919.4 -- 95
2021-01-09 23:00:00 -3.8 9 Oeste 14 Noroeste 0 919.5 -- 96
2021-01-09 22:00:00 -3.7 9 Oeste 12 Noroeste 0 919.3 -- 96
2021-01-09 21:00:00 -2.3 5 Noroeste 8 Noroeste 0.2 919 -- 96
2021-01-09 20:00:00 -1.1 5 Noroeste 7 Oeste 0.4 918.9 -- 95
2021-01-09 19:00:00 0.4 3 Sudoeste 9 Oeste 0.8 918.4 -- 94
2021-01-09 18:00:00 0.9 3 Sur 8 Este 1.4 917.8 -- 93
2021-01-09 17:00:00 1.3 5 Norte 22 Oeste 0.2 917.3 -- 94
2021-01-09 16:00:00 0.7 11 Oeste 15 Oeste 0.8 916.8 -- 93
2021-01-09 15:00:00 1.3 4 Oeste 12 Sur 1 915.9 -- 92
2021-01-09 14:00:00 1.8 4 Oeste 14 Sudeste 1.2 915.4 -- 91
2021-01-09 13:00:00 1.8 9 Sudeste 20 Sur 1 915.7 -- 91
2021-01-09 12:00:00 1.9 14 Sudeste 19 Sudeste 0 916.6 -- 87
2021-01-09 11:00:00 1.7 5 Este 12 Sudeste 0.2 916.9 -- 88
2021-01-09 10:00:00 1.2 6 Sudeste 14 Sudeste 0.4 916.5 -- 89
2021-01-09 09:00:00 0.5 6 Sudeste 23 Este 0.6 916.1 -- 92
2021-01-09 08:00:00 0.9 8 Este 28 Este 0.2 915.8 -- 88
2021-01-09 07:00:00 1 16 Este 27 Este 0 915.6 -- 85
2021-01-09 06:00:00 0.8 14 Este 32 Este 0.2 915.7 -- 86
2021-01-09 05:00:00 0.9 23 Este 41 Este 0.2 916.1 -- 86
2021-01-09 04:00:00 0.6 17 Este 27 Este 0.8 916.3 -- 92
2021-01-09 03:00:00 0.6 15 Este 33 Este 0.6 916.4 -- 92
2021-01-09 02:00:00 1 17 Este 33 Este 0 916.6 -- 88
2021-01-09 01:00:00 0.9 19 Este 39 Este 0.2 916.7 -- 87
2021-01-09 00:00:00 0.9 19 Este 36 Este 0 917.3 -- 85
2021-01-08 23:00:00 0.7 14 Este 29 Este 0 918.1 -- 88
2021-01-08 22:00:00 1 11 Este 35 Este 0 918.9 -- 86
2021-01-08 21:00:00 0.9 26 Este 47 Este 0 918.7 -- 86
2021-01-08 20:00:00 0.8 16 Este 33 Este 0 918.7 -- 87
2021-01-08 19:00:00 0.7 14 Este 29 Nordeste 0.2 919.2 -- 89
2021-01-08 18:00:00 0.7 17 Nordeste 32 Este 0.4 919.5 -- 90
2021-01-08 17:00:00 0.9 15 Este 29 Este 0.2 919.8 -- 89
2021-01-08 16:00:00 1.4 14 Nordeste 32 Este 0 919.8 -- 87
2021-01-08 15:00:00 1.8 15 Este 25 Este 0.2 919.9 -- 85
2021-01-08 14:00:00 1.9 15 Este 27 Este 0.2 920.4 -- 85
2021-01-08 13:00:00 1.7 12 Nordeste 24 Nordeste 0.6 921.3 -- 87
2021-01-08 12:00:00 1.4 8 Nordeste 21 Nordeste 1 922.4 -- 91
2021-01-08 11:00:00 1 12 Nordeste 23 Nordeste 0.8 923.1 -- 90
2021-01-08 10:00:00 1.4 14 Nordeste 24 Este 0.4 922.5 -- 86
2021-01-08 09:00:00 1 13 Nordeste 23 Nordeste 0.2 922.3 -- 90
2021-01-08 08:00:00 0.8 15 Nordeste 25 Nordeste 0.2 922.3 -- 90
2021-01-08 07:00:00 -0.1 3 Noroeste 9 Nordeste 0.2 922.3 -- 93
2021-01-08 06:00:00 0.3 2 Norte 20 Este 0.4 922.3 -- 92
2021-01-08 05:00:00 0.3 5 Nordeste 10 Nordeste 0.4 922.6 -- 95
2021-01-08 04:00:00 0.2 5 Norte 10 Norte 0.4 923 -- 95
2021-01-08 03:00:00 0.3 5 Norte 14 Nordeste 0.6 923 -- 95
2021-01-08 02:00:00 0.1 5 Nordeste 11 Norte 0.4 922.9 -- 96
2021-01-08 01:00:00 0 7 Noroeste 12 Noroeste 0.2 923.1 -- 96
2021-01-08 00:00:00 0.1 6 Norte 13 Norte 0.4 923.4 -- 96
2021-01-07 23:00:00 0.1 9 Noroeste 12 Noroeste 0.4 923.6 -- 96
2021-01-07 22:00:00 0.1 5 Norte 9 Norte 0.2 923.8 -- 96
2021-01-07 21:00:00 0.1 7 Noroeste 15 Norte 0.4 924.1 -- 96
2021-01-07 20:00:00 0.1 11 Norte 20 Noroeste 0.2 923.6 -- 96
2021-01-07 19:00:00 0.1 11 Norte 15 Noroeste 0.2 923.5 -- 96
2021-01-07 18:00:00 0.2 10 Norte 23 Norte 0.4 923.4 -- 95
2021-01-07 17:00:00 0.5 8 Norte 12 Norte 0.6 922.4 -- 95
2021-01-07 16:00:00 0.5 7 Norte 11 Norte 0.8 922.4 -- 94
2021-01-07 15:00:00 0.7 6 Noroeste 12 Norte 0.8 922.1 -- 93
2021-01-07 14:00:00 1.5 8 Norte 19 Este 0.2 921.9 -- 88
2021-01-07 13:00:00 2 12 Este 22 Este 0 922.5 -- 83
2021-01-07 12:00:00 1.8 9 Nordeste 15 Nordeste 0.2 923.2 -- 87
2021-01-07 11:00:00 1.4 5 Nordeste 16 Nordeste 0.2 924 -- 87
2021-01-07 10:00:00 1.3 8 Nordeste 13 Nordeste 0 923.3 -- 90
2021-01-07 09:00:00 1.1 8 Nordeste 13 Nordeste 0 922.9 -- 92
2021-01-07 08:00:00 0.9 6 Nordeste 12 Nordeste 0 922.6 -- 92
2021-01-07 07:00:00 0.5 6 Norte 13 Norte 0 922.5 -- 94
2021-01-07 06:00:00 0.6 7 Nordeste 11 Nordeste 0 922.3 -- 95
2021-01-07 05:00:00 0.3 5 Noroeste 6 Noroeste 0.2 922.5 -- 95
2021-01-07 04:00:00 0.3 3 Norte 5 Noroeste 0.4 923.1 -- 94
2021-01-07 03:00:00 0.3 4 Norte 6 Oeste 0.8 923.5 -- 93
2021-01-07 02:00:00 0.3 6 Oeste 11 Sur 0.2 923.9 -- 92
2021-01-07 01:00:00 0.6 7 Noroeste 10 Noroeste 0 924.4 -- 84
2021-01-07 00:00:00 -0.1 3 Noroeste 8 Noroeste 0 924.5 -- 82
2021-01-06 23:00:00 -0.3 3 Oeste 11 Noroeste 0 925 -- 78
2021-01-06 22:00:00 -0.7 9 Noroeste 12 Norte 0 925.3 -- 75
2021-01-06 21:00:00 -1.7 8 Norte 10 Noroeste 0 925.6 -- 70
2021-01-06 20:00:00 -0.5 4 Noroeste 9 Norte 0 925.6 -- 64
2021-01-06 19:00:00 1.4 6 Norte 8 Norte 0 924.6 -- 55
2021-01-06 18:00:00 4 3 Sudoeste 6 Sur 0 924.5 -- 40
2021-01-06 17:00:00 5.9 3 Sur 9 Sur 0 924.4 -- 37
2021-01-06 16:00:00 7.8 3 Sudeste 13 Sur 0 924.3 -- 30
2021-01-06 15:00:00 6.8 10 Sur 17 Sur 0 924.3 -- 34
2021-01-06 14:00:00 6 5 Sur 10 Sudeste 0 924.4 -- 36
2021-01-06 13:00:00 5.6 3 Sur 6 Sudeste 0 924.8 -- 39
2021-01-06 12:00:00 4.2 0 Calma 6 Noroeste 0 925.6 -- 50
2021-01-06 11:00:00 1.1 4 Noroeste 11 Noroeste 0 925.7 -- 65
2021-01-06 10:00:00 -2.3 9 Noroeste 12 Noroeste 0 925.4 -- 78
2021-01-06 09:00:00 -5.8 4 Noroeste 11 Norte 0 924.9 -- 84
2021-01-06 08:00:00 -5.7 6 Norte 13 Noroeste 0 924.1 -- 83
2021-01-06 07:00:00 -5.4 10 Noroeste 13 Noroeste 0 923.5 -- 83
2021-01-06 06:00:00 -5.9 3 Noroeste 11 Noroeste 0 923.3 -- 85
2021-01-06 05:00:00 -5 7 Norte 12 Norte 0 923.2 -- 83
2021-01-06 04:00:00 -3.9 7 Noroeste 12 Norte 0 923.4 -- 82
2021-01-06 03:00:00 -4.1 6 Noroeste 12 Noroeste 0 923.5 -- 83
2021-01-06 02:00:00 -5 6 Noroeste 10 Noroeste 0 923.1 -- 88
2021-01-06 01:00:00 -4.6 6 Noroeste 12 Noroeste 0 923.5 -- 89
2021-01-06 00:00:00 -4.8 6 Norte 9 Norte 0 923.7 -- 89
2021-01-05 23:00:00 -4 6 Noroeste 10 Noroeste 0 923.6 -- 88
2021-01-05 22:00:00 -3.1 2 Nordeste 8 Norte 0 923.5 -- 85
2021-01-05 21:00:00 -2.4 6 Norte 8 Noroeste 0 923.1 -- 81
2021-01-05 20:00:00 -0.8 4 Sudeste 7 Noroeste 0 923 -- 73
2021-01-05 19:00:00 0.6 6 Oeste 10 Sudoeste 0 922.6 -- 67
2021-01-05 18:00:00 3 8 Sur 18 Sur 0 922.2 -- 57
2021-01-05 17:00:00 4.9 13 Sur 22 Sur 0 922.1 -- 55
2021-01-05 16:00:00 5.2 16 Sur 23 Sudoeste 0 921.7 -- 56
2021-01-05 15:00:00 5.1 16 Sur 22 Sur 0 921.7 -- 56
2021-01-05 14:00:00 4.6 12 Sudeste 21 Sudeste 0 922 -- 59
2021-01-05 13:00:00 3.2 14 Sur 20 Sur 0 922.9 -- 64
2021-01-05 12:00:00 2.9 6 Sudeste 10 Este 0 923.6 -- 68
2021-01-05 11:00:00 -2.1 8 Sudeste 12 Sudeste 0 923.9 -- 91
2021-01-05 10:00:00 -4 8 Este 13 Sudeste 0 923.8 -- 89
2021-01-05 09:00:00 -3 5 Sudoeste 16 Noroeste 0 923.1 -- 77
2021-01-05 08:00:00 -1.6 12 Noroeste 19 Noroeste 0 922.3 -- 71
2021-01-05 07:00:00 -5.3 5 Noroeste 9 Noroeste 0 921.9 -- 93
2021-01-05 06:00:00 -4 7 Sudeste 14 Este 0 921.9 -- 90
2021-01-05 05:00:00 -2.6 7 Sudoeste 14 Oeste 0 922.1 -- 84
2021-01-05 04:00:00 -1.6 12 Noroeste 16 Noroeste 0 922.3 -- 83
2021-01-05 03:00:00 -1 8 Oeste 16 Noroeste 0 922.3 -- 83
2021-01-05 02:00:00 -1.3 8 Noroeste 18 Oeste 0 922.3 -- 86
2021-01-05 01:00:00 0.2 14 Oeste 23 Oeste 0 922.5 -- 83
2021-01-05 00:00:00 -0.3 7 Oeste 17 Oeste 0 923 -- 86
2021-01-04 23:00:00 -0.5 15 Oeste 24 Oeste 0 923 -- 85
2021-01-04 22:00:00 -0.8 15 Oeste 22 Oeste 0 923 -- 87
2021-01-04 21:00:00 -0.5 14 Oeste 24 Oeste 0 922.4 -- 85
2021-01-04 20:00:00 0.2 18 Oeste 21 Oeste 0 922.1 -- 83
2021-01-04 19:00:00 0.6 13 Sudoeste 20 Oeste 0 922.1 -- 81
2021-01-04 18:00:00 2.2 13 Sudoeste 28 Oeste 0 921.9 -- 70
2021-01-04 17:00:00 4.8 18 Oeste 32 Oeste 0 921.5 -- 51
2021-01-04 16:00:00 5.2 22 Noroeste 38 Noroeste 0 921.3 -- 42
2021-01-04 15:00:00 6.2 27 Oeste 40 Oeste 0 921.2 -- 43
2021-01-04 14:00:00 6.1 25 Oeste 41 Oeste 0 921.4 -- 49
2021-01-04 13:00:00 5 21 Oeste 29 Oeste 0 922.2 -- 59
2021-01-04 12:00:00 4.2 17 Sudoeste 26 Sudoeste 0 923.1 -- 65
2021-01-04 11:00:00 2.7 9 Oeste 19 Oeste 0 923.6 -- 69
2021-01-04 10:00:00 1.6 3 Sudoeste 10 Sur 0 923.8 -- 79
2021-01-04 09:00:00 -0.8 3 Noroeste 14 Sudoeste 0 923.6 -- 90
2021-01-04 08:00:00 -0.9 7 Oeste 12 Oeste 0 923.5 -- 88
2021-01-04 07:00:00 -1.2 3 Oeste 14 Oeste 0 923.6 -- 89
2021-01-04 06:00:00 -1.7 12 Oeste 18 Oeste 0 923.6 -- 87
2021-01-04 05:00:00 -1.2 5 Oeste 18 Oeste 0 923.8 -- 82
2021-01-04 04:00:00 -0.8 10 Oeste 18 Oeste 0 923.9 -- 80
2021-01-04 03:00:00 -0.2 5 Sudoeste 14 Sudoeste 0 924 -- 78
2021-01-04 02:00:00 -1.2 5 Nordeste 19 Oeste 0 924 -- 80
2021-01-04 01:00:00 -0.3 15 Oeste 23 Oeste 0 924.1 -- 78
2021-01-04 00:00:00 -0.3 8 Noroeste 22 Oeste 0 924.9 -- 77
2021-01-03 23:00:00 0.5 17 Oeste 32 Oeste 0 925.2 -- 73
2021-01-03 22:00:00 1 18 Oeste 26 Oeste 0 925.2 -- 71
2021-01-03 21:00:00 -0.2 11 Oeste 14 Sudoeste 0 925.5 -- 75
2021-01-03 20:00:00 1 9 Sudoeste 20 Oeste 0 925.6 -- 68
2021-01-03 19:00:00 2.6 12 Oeste 17 Noroeste 0 925.2 -- 59
2021-01-03 18:00:00 4.1 8 Norte 32 Noroeste 0 924.7 -- 48
2021-01-03 17:00:00 5.7 23 Noroeste 39 Oeste 0 924.4 -- 41
2021-01-03 16:00:00 6.1 28 Noroeste 43 Oeste 0 924.5 -- 40
2021-01-03 15:00:00 6.5 29 Noroeste 43 Noroeste 0 924.1 -- 42
2021-01-03 14:00:00 6 28 Noroeste 40 Noroeste 0 924.1 -- 42
2021-01-03 13:00:00 5.3 29 Noroeste 43 Noroeste 0 924.6 -- 46
2021-01-03 12:00:00 4.1 26 Noroeste 42 Noroeste 0 925 -- 49
2021-01-03 11:00:00 2.6 14 Noroeste 33 Noroeste 0 925.5 -- 53
2021-01-03 10:00:00 1 9 Oeste 23 Oeste 0 925.1 -- 60
2021-01-03 09:00:00 -1.4 15 Oeste 26 Noroeste 0 924.6 -- 67
2021-01-03 08:00:00 -2.5 12 Noroeste 21 Noroeste 0 924.2 -- 68
2021-01-03 07:00:00 -2.8 8 Oeste 21 Noroeste 0 923.5 -- 60
2021-01-03 06:00:00 -2.2 18 Sudoeste 25 Sudoeste 0 923.2 -- 62
2021-01-03 05:00:00 -0.7 21 Noroeste 46 Noroeste 0 922.8 -- 51
2021-01-03 04:00:00 -0.6 33 Noroeste 55 Noroeste 0 922.4 -- 54
2021-01-03 03:00:00 -0.1 34 Noroeste 53 Norte 0 922.4 -- 54
2021-01-03 02:00:00 0.2 33 Noroeste 59 Norte 0 922.7 -- 53
2021-01-03 01:00:00 0.4 27 Noroeste 49 Norte 0 922.8 -- 55
2021-01-03 00:00:00 0 21 Noroeste 36 Noroeste 0 923.4 -- 58
2021-01-02 23:00:00 0 12 Noroeste 21 Noroeste 0 923.2 -- 59
2021-01-02 22:00:00 0.1 14 Noroeste 23 Noroeste 0 923.1 -- 62
2021-01-02 21:00:00 0 14 Noroeste 24 Noroeste 0 922.8 -- 61
2021-01-02 20:00:00 0.5 19 Noroeste 34 Noroeste 0 922.8 -- 53
2021-01-02 19:00:00 1.5 24 Noroeste 34 Norte 0 922.4 -- 47
2021-01-02 18:00:00 2 16 Noroeste 39 Noroeste 0 921.9 -- 51
2021-01-02 17:00:00 3 31 Noroeste 49 Noroeste 0 921.2 -- 48
2021-01-02 16:00:00 3.1 17 Noroeste 40 Norte 0 921.1 -- 58
2021-01-02 15:00:00 3.5 28 Noroeste 49 Norte 0 920.5 -- 51
2021-01-02 14:00:00 3 23 Noroeste 45 Norte 0 920.5 -- 54